Time;durP1;ratioP1;P1;durP2;ratioP2;P2;SDS_P1;SDS_P2;PMS_P1;PMS_P2;Temp;Humidity;BMP_temperature;BMP_pressure;BME280_temperature;BME280_humidity;BME280_pressure;Samples;Min_cycle;Max_cycle;Signal;HPM_P1;HPM_P2
2021/07/20 00:03:59;;;;;;;20.83;12.73;;;;;16.80;101583.00;;;;10463125;28;20189;-77
2021/07/20 00:09:20;;;;;;;15.90;12.27;;;;;16.70;101587.00;;;;10420280;28;20201;-76
2021/07/20 00:14:22;;;;;;;16.17;12.30;;;;;16.70;101576.00;;;;10475163;28;20204;-76
2021/07/20 00:19:24;;;;;;;16.20;11.50;;;;;16.60;101580.00;;;;10470371;28;20182;-76
2021/07/20 00:24:26;;;;;;;17.77;12.03;;;;;16.40;101580.00;;;;10467479;28;20189;-76
2021/07/20 00:29:28;;;;;;;17.33;12.13;;;;;16.30;101585.00;;;;10448164;28;20206;-77
2021/07/20 00:34:30;;;;;;;19.27;13.13;;;;;16.30;101579.00;;;;10430444;28;20676;-76
2021/07/20 00:39:32;;;;;;;17.90;11.87;;;;;16.30;101575.00;;;;10451579;28;20703;-76
2021/07/20 00:44:35;;;;;;;18.17;13.10;;;;;16.20;101577.00;;;;10437784;28;20210;-76
2021/07/20 00:49:37;;;;;;;20.23;12.50;;;;;16.20;101566.00;;;;10433887;28;20257;-76
2021/07/20 00:54:39;;;;;;;20.97;13.37;;;;;16.10;101561.00;;;;10463598;28;20193;-76
2021/07/20 00:59:42;;;;;;;16.03;12.97;;;;;16.10;101568.00;;;;10458413;28;20190;-76
2021/07/20 01:04:45;;;;;;;18.90;13.27;;;;;16.10;101566.00;;;;10429456;28;20200;-76
2021/07/20 01:09:48;;;;;;;18.63;13.30;;;;;16.20;101576.00;;;;10447601;28;20233;-76
2021/07/20 01:14:51;;;;;;;19.60;13.47;;;;;16.20;101575.00;;;;10463207;28;20276;-76
2021/07/20 01:19:54;;;;;;;17.03;12.50;;;;;16.20;101573.00;;;;10463567;28;20190;-76
2021/07/20 01:24:59;;;;;;;19.40;13.00;;;;;16.20;101574.00;;;;10439857;28;20194;-76
2021/07/20 01:30:05;;;;;;;19.97;12.50;;;;;16.10;101574.00;;;;10438700;28;20240;-76
2021/07/20 01:35:10;;;;;;;17.97;12.67;;;;;16.10;101575.00;;;;10437425;28;20217;-76
2021/07/20 01:40:15;;;;;;;19.17;13.20;;;;;16.20;101577.00;;;;10463291;28;20574;-76
2021/07/20 01:45:18;;;;;;;17.80;13.07;;;;;16.20;101580.00;;;;10445522;28;20209;-76
2021/07/20 01:50:21;;;;;;;20.97;13.10;;;;;16.20;101575.00;;;;10463600;28;20244;-76
2021/07/20 01:55:25;;;;;;;21.77;12.57;;;;;16.20;101577.00;;;;10453143;28;20596;-76
2021/07/20 02:00:28;;;;;;;20.97;12.77;;;;;16.10;101566.00;;;;10425131;28;20189;-76
2021/07/20 02:11:33;;;;;;;21.47;14.03;;;;;15.80;101571.00;;;;10421188;28;20214;-76
2021/07/20 02:16:54;;;;;;;18.87;13.90;;;;;15.70;101572.00;;;;10407209;28;20198;-76
2021/07/20 02:21:58;;;;;;;20.50;14.10;;;;;15.70;101575.00;;;;10437480;28;20629;-76
2021/07/20 02:27:03;;;;;;;23.43;14.03;;;;;15.60;101566.00;;;;10407758;28;20194;-76
2021/07/20 02:32:14;;;;;;;24.93;14.77;;;;;15.60;101571.00;;;;10436917;28;20256;-76
2021/07/20 02:37:17;;;;;;;25.23;15.00;;;;;15.50;101569.00;;;;10468778;28;20855;-76
2021/07/20 02:42:21;;;;;;;25.17;15.40;;;;;15.50;101555.00;;;;10445532;28;20182;-76
2021/07/20 02:47:24;;;;;;;20.90;14.33;;;;;15.40;101558.00;;;;10477943;28;20198;-76
2021/07/20 02:52:30;;;;;;;23.40;15.40;;;;;15.30;101555.00;;;;10426340;28;20643;-76
2021/07/20 02:57:36;;;;;;;24.40;15.73;;;;;15.20;101558.00;;;;10407046;28;20546;-76
2021/07/20 03:02:44;;;;;;;25.97;14.50;;;;;15.20;101564.00;;;;10427547;28;20214;-76
2021/07/20 03:07:54;;;;;;;25.37;14.70;;;;;15.20;101568.00;;;;10430165;28;20201;-76
2021/07/20 03:13:09;;;;;;;23.10;14.63;;;;;15.10;101557.00;;;;10468237;28;20221;-76
2021/07/20 03:18:28;;;;;;;21.63;14.50;;;;;15.00;101560.00;;;;10440964;28;20198;-76
2021/07/20 03:23:33;;;;;;;23.53;14.50;;;;;15.00;101561.00;;;;10481329;28;20645;-76
2021/07/20 03:28:40;;;;;;;24.83;15.23;;;;;14.90;101560.00;;;;10427233;28;20198;-76
2021/07/20 03:33:45;;;;;;;26.83;13.63;;;;;14.90;101561.00;;;;10426263;28;20222;-76
2021/07/20 03:39:08;;;;;;;27.97;14.93;;;;;14.80;101557.00;;;;10472692;28;20288;-76
2021/07/20 03:44:11;;;;;;;22.33;15.10;;;;;14.80;101562.00;;;;10467238;28;20225;-76
2021/07/20 03:49:14;;;;;;;23.60;14.53;;;;;14.80;101553.00;;;;10483648;28;20235;-76
2021/07/20 03:54:22;;;;;;;22.90;14.13;;;;;14.80;101556.00;;;;10420549;28;20210;-76
2021/07/20 03:59:27;;;;;;;24.17;14.73;;;;;14.70;101547.00;;;;10426144;28;20205;-76
2021/07/20 04:04:49;;;;;;;22.93;15.53;;;;;14.70;101556.00;;;;10458380;28;20332;-76
2021/07/20 04:09:54;;;;;;;23.70;15.00;;;;;14.70;101552.00;;;;10424283;28;20198;-76
2021/07/20 04:15:19;;;;;;;22.43;14.20;;;;;14.70;101561.00;;;;10424942;28;20226;-76
2021/07/20 04:20:36;;;;;;;25.17;14.20;;;;;14.70;101567.00;;;;10462175;28;20174;-76
2021/07/20 04:25:43;;;;;;;23.63;15.27;;;;;14.80;101574.00;;;;10458266;28;20194;-76
2021/07/20 04:30:48;;;;;;;24.97;15.57;;;;;14.90;101572.00;;;;10429362;28;20218;-76
2021/07/20 04:35:53;;;;;;;21.70;14.47;;;;;14.90;101571.00;;;;10457328;28;20206;-76
2021/07/20 04:40:57;;;;;;;25.73;16.00;;;;;15.00;101569.00;;;;10463175;28;20181;-76
2021/07/20 04:46:02;;;;;;;29.90;16.10;;;;;15.10;101567.00;;;;10448605;28;20611;-76
2021/07/20 04:51:08;;;;;;;26.77;16.73;;;;;15.30;101577.00;;;;10464271;28;20217;-76
2021/07/20 04:56:13;;;;;;;28.80;17.33;;;;;15.40;101571.00;;;;10432864;28;20225;-76
2021/07/20 05:01:24;;;;;;;25.73;17.13;;;;;15.60;101581.00;;;;10413740;28;20186;-76
2021/07/20 05:06:30;;;;;;;26.20;17.80;;;;;15.90;101586.00;;;;10463801;28;20220;-76
2021/07/20 05:11:37;;;;;;;28.60;17.33;;;;;16.10;101592.00;;;;10447668;28;20206;-75
2021/07/20 05:16:39;;;;;;;27.40;17.77;;;;;16.30;101608.00;;;;10439307;28;20224;-76
2021/07/20 05:21:43;;;;;;;30.73;17.93;;;;;16.50;101612.00;;;;10407455;28;20194;-76
2021/07/20 05:26:49;;;;;;;25.63;16.57;;;;;16.40;101598.00;;;;10482591;28;20197;-76
2021/07/20 05:31:55;;;;;;;26.13;15.97;;;;;16.30;101616.00;;;;10446958;28;20267;-76
2021/07/20 05:36:58;;;;;;;24.83;17.10;;;;;16.70;101619.00;;;;10466871;28;20248;-76
2021/07/20 05:42:04;;;;;;;27.77;16.80;;;;;17.10;101630.00;;;;10405344;28;20642;-76
2021/07/20 05:47:15;;;;;;;26.47;16.70;;;;;17.10;101635.00;;;;10422700;28;20206;-76
2021/07/20 05:52:56;;;;;;;27.33;16.70;;;;;17.20;101637.00;;;;10446686;28;20216;-76
2021/07/20 05:58:04;;;;;;;26.07;15.23;;;;;17.80;101641.00;;;;10423594;28;20257;-76
2021/07/20 06:03:11;;;;;;;24.90;15.43;;;;;18.80;101642.00;;;;10445032;28;20641;-76
2021/07/20 06:08:20;;;;;;;22.25;15.15;;;;;19.20;101640.00;;;;10438021;28;20259;-76
2021/07/20 06:13:30;;;;;;;18.83;13.57;;;;;19.20;101644.00;;;;10444771;28;20267;-76
2021/07/20 06:18:37;;;;;;;26.40;15.50;;;;;19.40;101642.00;;;;10462337;28;20556;-76
2021/07/20 06:23:47;;;;;;;22.00;15.30;;;;;20.00;101641.00;;;;10448642;28;20189;-76
2021/07/20 06:28:53;;;;;;;21.10;14.57;;;;;20.20;101647.00;;;;10478782;28;20262;-76
2021/07/20 06:33:55;;;;;;;23.13;14.27;;;;;20.50;101659.00;;;;10461811;28;20726;-76
2021/07/20 06:38:57;;;;;;;21.33;14.50;;;;;20.80;101656.00;;;;10486483;28;20208;-76
2021/07/20 06:43:59;;;;;;;17.80;13.80;;;;;21.10;101661.00;;;;10467865;28;20212;-76
2021/07/20 06:49:02;;;;;;;23.92;14.65;;;;;21.50;101662.00;;;;10462629;28;20210;-76
2021/07/20 06:54:04;;;;;;;24.20;13.68;;;;;21.70;101662.00;;;;10427921;28;20206;-76
2021/07/20 06:59:13;;;;;;;21.80;14.00;;;;;21.80;101665.00;;;;10446707;28;20229;-76
2021/07/20 07:04:26;;;;;;;23.20;13.75;;;;;22.00;101660.00;;;;10444694;28;20216;-76
2021/07/20 07:09:30;;;;;;;20.60;13.25;;;;;22.50;101650.00;;;;10428270;28;20186;-76
2021/07/20 07:14:33;;;;;;;19.70;13.68;;;;;22.70;101650.00;;;;10491753;28;20729;-76
2021/07/20 07:19:35;;;;;;;18.30;13.48;;;;;23.00;101659.00;;;;10502705;28;20272;-76
2021/07/20 07:24:38;;;;;;;21.90;13.00;;;;;23.10;101655.00;;;;10467486;28;20345;-76
2021/07/20 07:29:42;;;;;;;20.80;12.70;;;;;23.30;101661.00;;;;10434448;28;20597;-76
2021/07/20 07:34:44;;;;;;;18.33;12.60;;;;;23.40;101661.00;;;;10432898;28;20236;-76
2021/07/20 07:39:47;;;;;;;19.35;12.45;;;;;23.50;101663.00;;;;10443837;28;20193;-76
2021/07/20 07:44:51;;;;;;;19.65;12.23;;;;;23.90;101659.00;;;;10463544;28;20212;-77
2021/07/20 07:49:53;;;;;;;18.85;13.57;;;;;24.20;101655.00;;;;10446691;28;20190;-77
2021/07/20 07:54:56;;;;;;;16.02;11.50;;;;;24.20;101660.00;;;;10477943;28;20216;-77
2021/07/20 07:59:59;;;;;;;14.05;10.82;;;;;24.60;101658.00;;;;10493977;28;20217;-77
2021/07/20 08:05:04;;;;;;;14.38;11.88;;;;;24.80;101660.00;;;;10444301;28;20189;-76
2021/07/20 08:10:08;;;;;;;14.77;11.48;;;;;24.90;101655.00;;;;10465462;28;20198;-77
2021/07/20 08:15:12;;;;;;;18.10;11.65;;;;;25.30;101666.00;;;;10445628;28;20218;-77
2021/07/20 08:20:17;;;;;;;16.75;11.25;;;;;25.60;101655.00;;;;10447317;28;20202;-77
2021/07/20 08:25:42;;;;;;;16.65;12.25;;;;;25.90;101659.00;;;;10453120;28;20200;-77
2021/07/20 08:30:49;;;;;;;11.88;10.55;;;;;26.20;101653.00;;;;10468316;28;20210;-77
2021/07/20 08:36:02;;;;;;;15.70;10.65;;;;;26.30;101655.00;;;;10476416;28;20218;-76
2021/07/20 08:41:06;;;;;;;14.05;11.52;;;;;26.40;101648.00;;;;10418207;28;20190;-77
2021/07/20 08:46:26;;;;;;;13.77;10.80;;;;;26.70;101648.00;;;;10436592;28;20218;-77
2021/07/20 08:51:59;;;;;;;13.23;11.05;;;;;26.90;101650.00;;;;10450951;28;20697;-77
2021/07/20 08:57:04;;;;;;;12.15;10.13;;;;;27.20;101646.00;;;;10423947;28;20277;-77
2021/07/20 09:02:15;;;;;;;13.32;10.07;;;;;27.60;101641.00;;;;10450330;28;20192;-77
2021/07/20 09:07:23;;;;;;;11.20;9.48;;;;;28.20;101644.00;;;;10449721;28;20193;-77
2021/07/20 09:12:32;;;;;;;10.82;9.63;;;;;28.20;101655.00;;;;10443084;28;20197;-77
2021/07/20 09:18:09;;;;;;;13.18;9.43;;;;;28.10;101655.00;;;;10453535;28;20510;-76
2021/07/20 09:23:16;;;;;;;13.18;9.45;;;;;28.10;101651.00;;;;10423527;28;20181;-77
2021/07/20 09:28:49;;;;;;;13.30;9.60;;;;;28.40;101648.00;;;;10459472;28;20672;-77
2021/07/20 09:34:09;;;;;;;13.18;10.07;;;;;28.60;101652.00;;;;10438585;28;20222;-77
2021/07/20 09:39:43;;;;;;;11.63;10.43;;;;;28.60;101651.00;;;;10451252;28;20190;-77
2021/07/20 09:44:53;;;;;;;12.27;8.95;;;;;29.00;101646.00;;;;10448854;28;20560;-75
2021/07/20 09:50:09;;;;;;;13.52;10.20;;;;;29.20;101650.00;;;;10474384;28;20193;-75
2021/07/20 09:55:36;;;;;;;14.63;10.52;;;;;29.20;101638.00;;;;10463391;28;20266;-75
2021/07/20 10:00:52;;;;;;;13.77;9.73;;;;;28.90;101635.00;;;;10456539;28;20646;-75
2021/07/20 10:06:13;;;;;;;10.20;9.18;;;;;29.00;101635.00;;;;10445463;28;20194;-76
2021/07/20 10:11:27;;;;;;;15.32;10.50;;;;;29.20;101638.00;;;;10470782;28;20220;-75
2021/07/20 10:16:48;;;;;;;14.52;10.98;;;;;29.40;101638.00;;;;10454154;28;20186;-75
2021/07/20 10:21:52;;;;;;;12.75;10.13;;;;;29.60;101626.00;;;;10449304;28;20190;-76
2021/07/20 10:27:02;;;;;;;12.13;10.35;;;;;29.80;101623.00;;;;10430411;28;20213;-76
2021/07/20 10:32:19;;;;;;;13.93;10.40;;;;;30.00;101621.00;;;;10434913;28;20218;-76
2021/07/20 10:37:27;;;;;;;13.55;10.82;;;;;30.00;101624.00;;;;10436073;28;20189;-76
2021/07/20 10:42:56;;;;;;;13.45;10.93;;;;;30.00;101630.00;;;;10441401;28;20703;-75
2021/07/20 10:48:04;;;;;;;14.45;10.80;;;;;30.20;101626.00;;;;10442331;28;20687;-75
2021/07/20 10:53:14;;;;;;;13.88;11.20;;;;;30.40;101615.00;;;;10440719;28;20214;-75
2021/07/20 10:58:39;;;;;;;14.70;11.02;;;;;30.30;101619.00;;;;10453868;28;20194;-75
2021/07/20 11:04:05;;;;;;;17.17;10.70;;;;;30.40;101613.00;;;;10442914;28;20597;-75
2021/07/20 11:09:13;;;;;;;12.60;10.60;;;;;30.20;101614.00;;;;10377023;28;20195;-76
2021/07/20 11:14:18;;;;;;;13.63;10.07;;;;;30.50;101604.00;;;;10467439;28;20212;-76
2021/07/20 11:19:20;;;;;;;11.95;9.98;;;;;30.50;101604.00;;;;10461045;28;20244;-76
2021/07/20 11:24:24;;;;;;;12.27;9.48;;;;;30.40;101603.00;;;;10459586;28;21145;-76
2021/07/20 11:29:27;;;;;;;13.63;10.77;;;;;30.70;101603.00;;;;10462355;28;20178;-76
2021/07/20 11:34:35;;;;;;;13.88;10.60;;;;;30.50;101604.00;;;;10469964;28;20567;-76
2021/07/20 11:39:45;;;;;;;11.75;10.52;;;;;30.10;101608.00;;;;10445871;28;20209;-76
2021/07/20 11:44:55;;;;;;;11.73;9.90;;;;;30.40;101593.00;;;;10422575;28;20684;-75
2021/07/20 11:50:19;;;;;;;12.20;9.65;;;;;31.10;101603.00;;;;10399208;28;20197;-76
2021/07/20 11:55:47;;;;;;;12.02;8.95;;;;;30.90;101603.00;;;;10445862;28;20212;-76
2021/07/20 12:01:27;;;;;;;11.85;9.30;;;;;31.20;101591.00;;;;10486012;28;20232;-75
2021/07/20 12:06:38;;;;;;;12.18;10.30;;;;;30.80;101588.00;;;;10448481;28;20281;-75
2021/07/20 12:11:43;;;;;;;12.35;9.82;;;;;31.00;101593.00;;;;10447787;28;20214;-75
2021/07/20 12:16:46;;;;;;;10.50;9.40;;;;;31.30;101589.00;;;;10474379;28;20904;-75
2021/07/20 12:21:50;;;;;;;12.65;9.60;;;;;30.90;101592.00;;;;10462649;28;20281;-76
2021/07/20 12:26:52;;;;;;;12.18;10.32;;;;;30.80;101582.00;;;;10442922;28;20272;-75
2021/07/20 12:31:54;;;;;;;10.30;9.20;;;;;30.80;101589.00;;;;10445987;28;20225;-75
2021/07/20 12:36:57;;;;;;;17.02;10.43;;;;;31.10;101585.00;;;;10480617;28;20193;-76
2021/07/20 12:41:58;;;;;;;13.00;8.98;;;;;31.40;101579.00;;;;10460932;28;20281;-75
2021/07/20 12:47:11;;;;;;;10.98;9.38;;;;;31.50;101589.00;;;;10471866;28;20843;-76
2021/07/20 12:52:14;;;;;;;12.02;9.18;;;;;31.50;101577.00;;;;10437441;28;20214;-76
2021/07/20 12:57:18;;;;;;;11.00;8.75;;;;;31.60;101566.00;;;;10447783;28;20188;-76
2021/07/20 13:02:41;;;;;;;12.35;10.02;;;;;32.20;101570.00;;;;10458408;28;20711;-76
2021/07/20 13:07:43;;;;;;;13.10;9.77;;;;;30.90;101569.00;;;;10443706;28;20543;-76
2021/07/20 13:12:47;;;;;;;12.35;9.38;;;;;30.10;101568.00;;;;10466652;28;20198;-76
2021/07/20 13:17:50;;;;;;;10.75;9.52;;;;;30.40;101569.00;;;;10488338;28;20210;-76
2021/07/20 13:22:53;;;;;;;10.95;8.95;;;;;30.60;101562.00;;;;10449634;28;20190;-75
2021/07/20 13:27:57;;;;;;;11.90;9.13;;;;;30.90;101561.00;;;;10461433;28;20202;-75
2021/07/20 13:32:59;;;;;;;12.52;10.25;;;;;31.10;101559.00;;;;10467176;28;20218;-76
2021/07/20 13:38:02;;;;;;;10.23;9.13;;;;;31.40;101562.00;;;;10432930;28;21034;-75
2021/07/20 13:43:04;;;;;;;14.55;10.15;;;;;31.60;101562.00;;;;10445927;28;20684;-75
2021/07/20 13:48:10;;;;;;;11.55;9.55;;;;;32.00;101565.00;;;;10481162;28;20193;-75
2021/07/20 13:53:21;;;;;;;12.32;10.20;;;;;32.80;101560.00;;;;10458527;28;20229;-76
2021/07/20 13:58:26;;;;;;;13.85;9.52;;;;;34.20;101566.00;;;;10448634;28;20197;-76
2021/07/20 14:03:29;;;;;;;14.35;9.63;;;;;35.60;101561.00;;;;10415374;28;20198;-76
2021/07/20 14:08:32;;;;;;;14.93;9.10;;;;;36.20;101565.00;;;;10426611;28;20649;-76
2021/07/20 14:13:35;;;;;;;12.65;9.13;;;;;36.50;101562.00;;;;10434347;28;20290;-76
2021/07/20 14:18:43;;;;;;;11.82;8.98;;;;;36.80;101558.00;;;;10432755;28;20198;-76
2021/07/20 14:23:45;;;;;;;11.55;9.70;;;;;37.10;101553.00;;;;10417395;28;20186;-76
2021/07/20 14:28:50;;;;;;;10.55;8.45;;;;;37.80;101549.00;;;;10417740;28;20186;-76
2021/07/20 14:33:52;;;;;;;14.25;9.70;;;;;38.10;101544.00;;;;10417098;28;20305;-75
2021/07/20 14:38:54;;;;;;;12.80;10.35;;;;;38.50;101545.00;;;;10458026;28;20193;-75
2021/07/20 14:44:01;;;;;;;13.05;10.50;;;;;38.40;101541.00;;;;10475124;28;20193;-76
2021/07/20 14:49:04;;;;;;;14.35;10.90;;;;;38.70;101539.00;;;;10460400;28;20280;-76
2021/07/20 14:54:22;;;;;;;13.30;9.68;;;;;39.00;101537.00;;;;10456925;28;20584;-76
2021/07/20 14:59:23;;;;;;;11.45;10.02;;;;;39.20;101530.00;;;;10449393;28;20204;-76
2021/07/20 15:04:28;;;;;;;11.85;9.52;;;;;38.90;101521.00;;;;10461792;28;20186;-76
2021/07/20 15:09:32;;;;;;;11.95;10.70;;;;;38.40;101521.00;;;;10445527;28;20198;-76
2021/07/20 15:14:35;;;;;;;12.60;10.13;;;;;37.90;101523.00;;;;10446386;28;20194;-76
2021/07/20 15:19:42;;;;;;;12.57;9.88;;;;;38.70;101522.00;;;;10471146;28;20200;-76
2021/07/20 15:24:45;;;;;;;15.10;10.27;;;;;39.10;101513.00;;;;10460521;28;20228;-76
2021/07/20 15:29:57;;;;;;;13.20;11.10;;;;;39.20;101525.00;;;;10464350;28;20250;-75
2021/07/20 15:35:00;;;;;;;14.27;10.45;;;;;39.40;101524.00;;;;10476600;28;20221;-75
2021/07/20 15:40:06;;;;;;;12.10;10.27;;;;;38.90;101534.00;;;;10508265;28;20196;-76
2021/07/20 15:45:14;;;;;;;11.68;9.55;;;;;37.40;101535.00;;;;10507388;28;20204;-75
2021/07/20 15:50:24;;;;;;;12.20;9.25;;;;;36.50;101520.00;;;;10460264;28;20198;-76
2021/07/20 15:55:28;;;;;;;11.13;9.55;;;;;34.20;101525.00;;;;10445525;28;20236;-76
2021/07/20 16:00:35;;;;;;;12.23;9.80;;;;;30.90;101524.00;;;;10422359;28;20285;-75
2021/07/20 16:05:38;;;;;;;13.27;9.95;;;;;29.50;101518.00;;;;10437945;28;20200;-75
2021/07/20 16:10:41;;;;;;;12.60;9.00;;;;;28.70;101511.00;;;;10438692;28;20650;-75
2021/07/20 16:15:45;;;;;;;11.60;9.55;;;;;28.30;101499.00;;;;10456465;28;20222;-75
2021/07/20 16:20:50;;;;;;;12.98;9.73;;;;;28.20;101503.00;;;;10438177;28;20229;-75
2021/07/20 16:26:03;;;;;;;12.50;9.65;;;;;27.60;101512.00;;;;10448207;28;20217;-75
2021/07/20 16:31:09;;;;;;;13.55;9.57;;;;;27.40;101507.00;;;;10429661;28;20198;-76
2021/07/20 16:36:12;;;;;;;14.15;9.52;;;;;27.10;101506.00;;;;10440434;28;20218;-76
2021/07/20 16:41:24;;;;;;;12.05;9.65;;;;;26.80;101515.00;;;;10437521;28;20649;-75
2021/07/20 16:46:26;;;;;;;15.52;10.25;;;;;26.70;101521.00;;;;10421288;28;20194;-75
2021/07/20 16:51:28;;;;;;;11.02;9.25;;;;;26.60;101512.00;;;;10437125;28;20586;-76
2021/07/20 16:56:32;;;;;;;12.55;8.88;;;;;26.50;101530.00;;;;10490602;28;20200;-75
2021/07/20 17:01:41;;;;;;;14.82;9.40;;;;;26.30;101535.00;;;;10478063;28;20218;-76
2021/07/20 17:06:44;;;;;;;15.10;9.93;;;;;26.20;101532.00;;;;10445123;28;20243;-75
2021/07/20 17:11:46;;;;;;;12.32;9.38;;;;;26.10;101528.00;;;;10478010;28;20190;-75
2021/07/20 17:16:48;;;;;;;13.35;9.43;;;;;26.00;101534.00;;;;10464443;28;20625;-75
2021/07/20 17:21:50;;;;;;;12.48;9.48;;;;;25.90;101529.00;;;;10419529;28;20202;-75
2021/07/20 17:26:53;;;;;;;13.75;9.43;;;;;25.80;101534.00;;;;10440089;28;20209;-75
2021/07/20 17:31:59;;;;;;;10.77;8.40;;;;;25.70;101534.00;;;;10405760;28;20210;-75
2021/07/20 17:37:13;;;;;;;10.43;9.05;;;;;25.60;101542.00;;;;10434598;28;20993;-75
2021/07/20 17:42:16;;;;;;;13.30;9.27;;;;;25.60;101547.00;;;;10439341;28;20668;-75
2021/07/20 17:47:22;;;;;;;10.80;8.70;;;;;25.60;101540.00;;;;10448633;28;20202;-75
2021/07/20 17:52:26;;;;;;;12.73;9.30;;;;;25.40;101540.00;;;;10454586;28;20198;-75
2021/07/20 17:57:29;;;;;;;12.52;9.13;;;;;25.30;101540.00;;;;10422364;28;20562;-76
2021/07/20 18:02:31;;;;;;;12.27;9.15;;;;;25.20;101539.00;;;;10421615;28;20186;-76
2021/07/20 18:07:34;;;;;;;13.48;9.70;;;;;25.00;101542.00;;;;10456046;28;20182;-75
2021/07/20 18:12:36;;;;;;;13.40;9.60;;;;;24.90;101547.00;;;;10423536;28;20220;-75
2021/07/20 18:17:39;;;;;;;15.57;9.77;;;;;24.80;101542.00;;;;10438353;28;20676;-75
2021/07/20 18:22:42;;;;;;;14.40;8.95;;;;;24.60;101539.00;;;;10445917;28;20208;-75
2021/07/20 18:27:44;;;;;;;14.70;9.23;;;;;24.50;101538.00;;;;10466801;28;20247;-75
2021/07/20 18:32:46;;;;;;;15.20;9.68;;;;;24.40;101539.00;;;;10486559;28;20282;-75
2021/07/20 18:37:48;;;;;;;11.73;9.18;;;;;24.30;101547.00;;;;10484881;28;20289;-75
2021/07/20 18:42:51;;;;;;;12.73;10.13;;;;;24.10;101548.00;;;;10429187;28;20213;-75
2021/07/20 18:47:53;;;;;;;13.65;9.57;;;;;24.00;101541.00;;;;10429045;28;20194;-75
2021/07/20 18:52:55;;;;;;;11.98;9.40;;;;;23.70;101541.00;;;;10468819;28;20201;-75
2021/07/20 18:57:57;;;;;;;14.38;10.23;;;;;23.40;101559.00;;;;10469956;28;20194;-75
2021/07/20 19:02:58;;;;;;;16.38;10.25;;;;;23.00;101549.00;;;;10428298;28;20198;-75
2021/07/20 19:08:03;;;;;;;15.63;9.88;;;;;22.80;101556.00;;;;10428323;28;20262;-75
2021/07/20 19:13:10;;;;;;;13.55;9.38;;;;;22.60;101556.00;;;;10444282;28;20202;-75
2021/07/20 19:18:12;;;;;;;12.10;9.05;;;;;22.40;101554.00;;;;10428024;28;20190;-75
2021/07/20 19:23:14;;;;;;;14.32;10.18;;;;;22.10;101551.00;;;;10452478;28;20186;-75
2021/07/20 19:28:16;;;;;;;14.20;9.88;;;;;21.90;101560.00;;;;10468921;28;20641;-75
2021/07/20 19:33:18;;;;;;;14.90;9.25;;;;;21.70;101566.00;;;;10468195;28;20233;-75
2021/07/20 19:38:20;;;;;;;15.10;10.02;;;;;21.40;101563.00;;;;10435498;28;20204;-75
2021/07/20 19:43:22;;;;;;;15.35;9.63;;;;;21.20;101566.00;;;;10484834;28;20194;-75
2021/07/20 19:48:24;;;;;;;14.07;9.82;;;;;21.00;101565.00;;;;10502372;28;20265;-75
2021/07/20 19:53:26;;;;;;;14.45;10.73;;;;;20.80;101572.00;;;;10474002;28;20221;-75
2021/07/20 19:58:29;;;;;;;14.05;10.25;;;;;20.70;101583.00;;;;10443671;28;20194;-75
2021/07/20 20:03:31;;;;;;;18.55;10.50;;;;;20.60;101588.00;;;;10409992;28;20197;-75
2021/07/20 20:08:33;;;;;;;15.38;10.27;;;;;20.50;101600.00;;;;10437502;28;20560;-75
2021/07/20 20:13:35;;;;;;;17.48;10.60;;;;;20.40;101598.00;;;;10425702;28;20592;-75
2021/07/20 20:18:38;;;;;;;12.95;9.40;;;;;20.20;101599.00;;;;10442078;28;20195;-75
2021/07/20 20:23:40;;;;;;;15.65;11.18;;;;;20.00;101605.00;;;;10437832;28;20541;-75
2021/07/20 20:28:42;;;;;;;14.88;9.80;;;;;19.90;101612.00;;;;10466435;28;20190;-75
2021/07/20 20:33:44;;;;;;;17.92;9.48;;;;;19.70;101616.00;;;;10465887;28;20206;-75
2021/07/20 20:38:46;;;;;;;15.60;10.80;;;;;19.50;101618.00;;;;10466515;28;20193;-75
2021/07/20 20:43:48;;;;;;;16.35;10.57;;;;;19.40;101631.00;;;;10465810;28;20208;-75
2021/07/20 20:48:50;;;;;;;16.88;10.43;;;;;19.20;101623.00;;;;10465296;28;20197;-75
2021/07/20 20:53:52;;;;;;;16.38;10.63;;;;;19.00;101629.00;;;;10468406;28;20218;-75
2021/07/20 20:58:54;;;;;;;16.95;10.93;;;;;18.90;101634.00;;;;10424217;28;20190;-75
2021/07/20 21:03:56;;;;;;;19.20;12.27;;;;;18.80;101635.00;;;;10440517;28;20182;-75
2021/07/20 21:08:58;;;;;;;17.08;11.95;;;;;18.80;101644.00;;;;10457137;28;20178;-75
2021/07/20 21:14:01;;;;;;;19.73;12.90;;;;;18.80;101647.00;;;;10423182;28;20220;-75
2021/07/20 21:19:03;;;;;;;18.20;12.82;;;;;18.80;101640.00;;;;10407395;28;20256;-75
2021/07/20 21:24:05;;;;;;;21.77;13.40;;;;;18.80;101643.00;;;;10438926;28;20538;-75
2021/07/20 21:29:07;;;;;;;23.35;13.85;;;;;18.80;101644.00;;;;10447773;28;20200;-75
2021/07/20 21:34:09;;;;;;;21.63;14.27;;;;;18.70;101655.00;;;;10480137;28;20216;-75
2021/07/20 21:39:11;;;;;;;23.20;14.48;;;;;18.70;101656.00;;;;10464036;28;20220;-75
2021/07/20 21:44:13;;;;;;;21.15;14.35;;;;;18.60;101655.00;;;;10497684;28;20194;-75
2021/07/20 21:49:15;;;;;;;23.83;15.48;;;;;18.50;101659.00;;;;10463383;28;20251;-75
2021/07/20 21:54:17;;;;;;;24.38;15.00;;;;;18.40;101656.00;;;;10445952;28;20229;-75
2021/07/20 21:59:19;;;;;;;23.02;14.88;;;;;18.40;101666.00;;;;10416440;28;20719;-75
2021/07/20 22:04:25;;;;;;;19.98;14.73;;;;;18.30;101666.00;;;;10420800;28;20240;-75
2021/07/20 22:09:27;;;;;;;23.55;16.48;;;;;18.20;101682.00;;;;10456129;28;20206;-75
2021/07/20 22:14:29;;;;;;;24.45;16.35;;;;;18.10;101680.00;;;;10421697;28;20240;-75
2021/07/20 22:19:31;;;;;;;26.08;15.90;;;;;18.10;101679.00;;;;10405140;28;20314;-75
2021/07/20 22:24:33;;;;;;;29.02;16.85;;;;;18.00;101691.00;;;;10449864;28;20186;-75
2021/07/20 22:29:35;;;;;;;23.95;15.48;;;;;17.90;101695.00;;;;10437753;28;20194;-75
2021/07/20 22:34:36;;;;;;;27.63;15.88;;;;;17.90;101698.00;;;;10437651;28;20263;-75
2021/07/20 22:39:38;;;;;;;25.30;16.52;;;;;17.80;101698.00;;;;10404628;28;20198;-75
2021/07/20 22:44:40;;;;;;;27.43;16.93;;;;;17.70;101693.00;;;;10437476;28;20304;-74
2021/07/20 22:49:42;;;;;;;25.40;15.93;;;;;17.60;101710.00;;;;10434378;28;20195;-75
2021/07/20 22:54:47;;;;;;;26.33;18.17;;;;;17.50;101709.00;;;;10455525;28;20224;-76
2021/07/20 22:59:49;;;;;;;24.30;16.45;;;;;17.40;101708.00;;;;10450040;28;20200;-75
2021/07/20 23:04:51;;;;;;;24.77;15.67;;;;;17.30;101721.00;;;;10478179;28;20190;-75
2021/07/20 23:09:52;;;;;;;24.40;17.23;;;;;17.20;101714.00;;;;10467352;28;20553;-75
2021/07/20 23:14:54;;;;;;;29.30;16.47;;;;;17.10;101715.00;;;;10441169;28;20207;-75
2021/07/20 23:19:57;;;;;;;29.13;17.33;;;;;17.10;101715.00;;;;10471693;28;20190;-74
2021/07/20 23:24:59;;;;;;;26.83;16.60;;;;;17.10;101713.00;;;;10462452;28;20201;-75
2021/07/20 23:30:06;;;;;;;24.93;15.10;;;;;17.20;101713.00;;;;10503104;28;20297;-75
2021/07/20 23:35:10;;;;;;;23.30;14.77;;;;;17.20;101711.00;;;;10427043;28;20310;-75
2021/07/20 23:40:16;;;;;;;23.10;15.47;;;;;17.20;101718.00;;;;10438168;28;20220;-75
2021/07/20 23:45:18;;;;;;;22.33;14.40;;;;;17.10;101720.00;;;;10466798;28;20719;-75
2021/07/20 23:50:25;;;;;;;23.97;14.97;;;;;17.00;101720.00;;;;10424751;28;20195;-75
2021/07/20 23:55:27;;;;;;;22.93;15.03;;;;;16.90;101723.00;;;;10441783;28;20670;-77
